Time;durP1;ratioP1;P1;durP2;ratioP2;P2;SDS_P1;SDS_P2;PMS_P1;PMS_P2;Temp;Humidity;BMP_temperature;BMP_pressure;BME280_temperature;BME280_humidity;BME280_pressure;Samples;Min_cycle;Max_cycle;Signal;HPM_P1;HPM_P2
2022/01/02 00:01:13;;;;;;;18.52;10.88;;;;;;;;;;4976145;28;20420;-61
2022/01/02 00:03:41;;;;;;;16.15;9.88;;;;;;;;;;4975852;28;20061;-61
2022/01/02 00:06:10;;;;;;;17.45;9.48;;;;;;;;;;4975870;28;20062;-61
2022/01/02 00:08:42;;;;;;;15.90;9.48;;;;;;;;;;4975648;28;20101;-61
2022/01/02 00:11:12;;;;;;;15.25;8.98;;;;;;;;;;4974789;28;20136;-61
2022/01/02 00:13:47;;;;;;;15.73;9.35;;;;;;;;;;4976018;28;20398;-61
2022/01/02 00:16:16;;;;;;;15.80;9.48;;;;;;;;;;4975895;28;20054;-61
2022/01/02 00:18:50;;;;;;;15.25;9.27;;;;;;;;;;4975383;28;20066;-61
2022/01/02 00:21:21;;;;;;;15.68;8.95;;;;;;;;;;4975929;28;20065;-61
2022/01/02 00:23:58;;;;;;;16.15;10.23;;;;;;;;;;4975789;28;20509;-61
2022/01/02 00:26:34;;;;;;;17.58;10.30;;;;;;;;;;4975483;28;20058;-61
2022/01/02 00:29:03;;;;;;;15.27;9.30;;;;;;;;;;4975599;28;20093;-61
2022/01/02 00:31:32;;;;;;;15.48;9.55;;;;;;;;;;4975440;28;20097;-61
2022/01/02 00:33:59;;;;;;;15.48;8.35;;;;;;;;;;4975057;28;20054;-62
2022/01/02 00:36:28;;;;;;;15.23;9.05;;;;;;;;;;4975218;28;20061;-60
2022/01/02 00:38:55;;;;;;;17.42;9.45;;;;;;;;;;4975501;28;20404;-61
2022/01/02 00:41:26;;;;;;;14.35;8.48;;;;;;;;;;4975342;28;20055;-61
2022/01/02 00:44:02;;;;;;;13.75;8.43;;;;;;;;;;4975161;28;20055;-61
2022/01/02 00:46:33;;;;;;;15.70;9.40;;;;;;;;;;4975105;28;20473;-61
2022/01/02 00:49:05;;;;;;;13.48;8.15;;;;;;;;;;4975099;28;20590;-61
2022/01/02 00:51:46;;;;;;;12.43;8.05;;;;;;;;;;4975237;28;20051;-61
2022/01/02 00:54:17;;;;;;;11.90;7.45;;;;;;;;;;4975026;28;20154;-61
2022/01/02 00:56:46;;;;;;;15.18;7.82;;;;;;;;;;4975091;28;20491;-61
2022/01/02 00:59:24;;;;;;;13.07;7.35;;;;;;;;;;4974923;28;20053;-62
2022/01/02 01:02:02;;;;;;;13.52;7.75;;;;;;;;;;4974971;28;20062;-61
2022/01/02 01:04:31;;;;;;;13.13;7.78;;;;;;;;;;4975120;28;20479;-61
2022/01/02 01:07:04;;;;;;;14.52;8.00;;;;;;;;;;4974691;28;20047;-61
2022/01/02 01:09:32;;;;;;;12.43;7.72;;;;;;;;;;4974734;28;20051;-61
2022/01/02 01:12:00;;;;;;;12.07;7.82;;;;;;;;;;4974679;28;20062;-61
2022/01/02 01:14:28;;;;;;;12.25;7.25;;;;;;;;;;4974621;28;20042;-61
2022/01/02 01:16:56;;;;;;;11.57;6.85;;;;;;;;;;4974485;28;20081;-61
2022/01/02 01:19:24;;;;;;;14.05;8.00;;;;;;;;;;4974570;28;20097;-61
2022/01/02 01:21:52;;;;;;;12.48;7.75;;;;;;;;;;4974799;28;20451;-61
2022/01/02 01:24:20;;;;;;;13.35;7.63;;;;;;;;;;4974833;28;20074;-61
2022/01/02 01:26:50;;;;;;;12.43;7.30;;;;;;;;;;4974282;28;20047;-61
2022/01/02 01:29:17;;;;;;;12.60;7.68;;;;;;;;;;4974645;28;20065;-61
2022/01/02 01:31:46;;;;;;;14.10;8.00;;;;;;;;;;4974385;28;20057;-61
2022/01/02 01:34:13;;;;;;;13.93;7.60;;;;;;;;;;4974218;28;20090;-61
2022/01/02 01:36:39;;;;;;;11.68;7.18;;;;;;;;;;4974038;28;20055;-61
2022/01/02 01:39:06;;;;;;;15.80;7.68;;;;;;;;;;4974247;28;20087;-61
2022/01/02 01:41:38;;;;;;;13.02;7.18;;;;;;;;;;4974292;28;20055;-61
2022/01/02 01:44:21;;;;;;;14.07;7.70;;;;;;;;;;4974184;28;20055;-61
2022/01/02 01:46:51;;;;;;;13.55;7.85;;;;;;;;;;4974021;28;20578;-62
2022/01/02 01:49:20;;;;;;;11.95;7.55;;;;;;;;;;4974801;28;20089;-61
2022/01/02 01:51:48;;;;;;;10.85;6.93;;;;;;;;;;4974100;28;20058;-61
2022/01/02 01:54:16;;;;;;;9.85;5.65;;;;;;;;;;4974186;28;20051;-61
2022/01/02 01:56:45;;;;;;;8.43;5.38;;;;;;;;;;4973573;28;20070;-61
2022/01/02 01:59:13;;;;;;;7.65;4.90;;;;;;;;;;4973988;28;20504;-61
2022/01/02 02:01:39;;;;;;;8.45;4.40;;;;;;;;;;4973707;28;20055;-61
2022/01/02 02:04:06;;;;;;;7.70;4.65;;;;;;;;;;4973909;28;20057;-61
2022/01/02 02:06:35;;;;;;;7.28;4.20;;;;;;;;;;4973624;28;20051;-61
2022/01/02 02:09:03;;;;;;;6.95;4.00;;;;;;;;;;4973801;28;20062;-61
2022/01/02 02:11:30;;;;;;;8.02;4.45;;;;;;;;;;4973650;28;20055;-60
2022/01/02 02:13:59;;;;;;;7.18;4.53;;;;;;;;;;4973523;28;20046;-61
2022/01/02 02:16:28;;;;;;;9.18;5.00;;;;;;;;;;4973668;28;20066;-61
2022/01/02 02:18:55;;;;;;;8.82;5.07;;;;;;;;;;4973694;28;20496;-61
2022/01/02 02:21:30;;;;;;;9.75;5.60;;;;;;;;;;4973516;28;20097;-62
2022/01/02 02:23:59;;;;;;;12.52;6.65;;;;;;;;;;4973563;28;20496;-61
2022/01/02 02:26:26;;;;;;;9.35;6.05;;;;;;;;;;4973312;28;20046;-61
2022/01/02 02:28:53;;;;;;;8.73;5.70;;;;;;;;;;4973372;28;20054;-61
2022/01/02 02:31:20;;;;;;;8.45;5.60;;;;;;;;;;4973293;28;20409;-61
2022/01/02 02:33:47;;;;;;;9.80;5.22;;;;;;;;;;4972558;28;20061;-61
2022/01/02 02:36:14;;;;;;;8.57;5.30;;;;;;;;;;4973354;28;20385;-62
2022/01/02 02:38:43;;;;;;;8.50;4.50;;;;;;;;;;4973638;28;20114;-61
2022/01/02 02:41:10;;;;;;;10.90;4.95;;;;;;;;;;4973211;28;20054;-61
2022/01/02 02:43:44;;;;;;;8.60;4.28;;;;;;;;;;4973286;28;20060;-61
2022/01/02 02:49:05;;;;;;;8.13;4.22;;;;;;;;;;4973315;28;20057;-61
2022/01/02 02:51:46;;;;;;;7.00;4.03;;;;;;;;;;4973475;28;20109;-61
2022/01/02 02:54:19;;;;;;;7.15;3.83;;;;;;;;;;4973152;28;20047;-61
2022/01/02 02:56:55;;;;;;;5.38;3.47;;;;;;;;;;4972858;28;20094;-61
2022/01/02 02:59:23;;;;;;;5.38;2.80;;;;;;;;;;4973055;28;20061;-61
2022/01/02 03:01:50;;;;;;;6.28;2.97;;;;;;;;;;4973190;28;20206;-61
2022/01/02 03:04:17;;;;;;;5.50;2.58;;;;;;;;;;4973029;28;20059;-61
2022/01/02 03:06:44;;;;;;;4.97;2.60;;;;;;;;;;4972777;28;20057;-61
2022/01/02 03:09:11;;;;;;;4.45;2.20;;;;;;;;;;4973014;28;20063;-61
2022/01/02 03:11:41;;;;;;;4.75;2.60;;;;;;;;;;4973179;28;20570;-61
2022/01/02 03:14:10;;;;;;;5.72;2.80;;;;;;;;;;4973082;28;20400;-61
2022/01/02 03:16:38;;;;;;;4.70;2.40;;;;;;;;;;4972838;28;20051;-61
2022/01/02 03:19:05;;;;;;;4.90;2.78;;;;;;;;;;4973248;28;20412;-61
2022/01/02 03:21:32;;;;;;;5.10;2.47;;;;;;;;;;4972695;28;20055;-61
2022/01/02 03:23:59;;;;;;;4.22;1.88;;;;;;;;;;4972897;28;20054;-61
2022/01/02 03:26:26;;;;;;;3.95;2.17;;;;;;;;;;4972861;28;20055;-62
2022/01/02 03:28:54;;;;;;;5.03;2.20;;;;;;;;;;4972786;28;20047;-61
2022/01/02 03:31:21;;;;;;;4.78;2.30;;;;;;;;;;4972745;28;20071;-61
2022/01/02 03:33:48;;;;;;;4.88;2.38;;;;;;;;;;5006223;23;20050;-59
2022/01/02 03:36:15;;;;;;;5.30;2.65;;;;;;;;;;5011369;28;20050;-59
2022/01/02 03:38:42;;;;;;;4.35;2.20;;;;;;;;;;5011495;28;20084;-59
2022/01/02 03:41:09;;;;;;;3.40;2.00;;;;;;;;;;5011732;28;20054;-58
2022/01/02 03:43:36;;;;;;;3.78;1.83;;;;;;;;;;5011488;28;20049;-59
2022/01/02 03:46:04;;;;;;;4.47;2.20;;;;;;;;;;5014211;28;20042;-57
2022/01/02 03:48:32;;;;;;;6.40;3.17;;;;;;;;;;5015327;28;20511;-58
2022/01/02 03:50:59;;;;;;;5.70;3.20;;;;;;;;;;5015568;28;20057;-57
2022/01/02 03:53:26;;;;;;;6.90;3.03;;;;;;;;;;5014898;28;20061;-58
2022/01/02 03:55:54;;;;;;;5.35;3.50;;;;;;;;;;5015117;28;20056;-59
2022/01/02 03:58:20;;;;;;;6.00;2.97;;;;;;;;;;5014776;28;20053;-58
2022/01/02 04:00:47;;;;;;;6.03;3.15;;;;;;;;;;5015075;28;20522;-59
2022/01/02 04:03:16;;;;;;;5.20;2.97;;;;;;;;;;5015062;28;20391;-59
2022/01/02 04:05:43;;;;;;;5.35;3.00;;;;;;;;;;5014977;28;20129;-60
2022/01/02 04:08:10;;;;;;;6.05;3.30;;;;;;;;;;5014784;28;20053;-60
2022/01/02 04:10:37;;;;;;;6.03;2.95;;;;;;;;;;5015136;28;20050;-58
2022/01/02 04:13:06;;;;;;;4.20;2.45;;;;;;;;;;5014674;28;20053;-60
2022/01/02 04:15:33;;;;;;;5.07;2.65;;;;;;;;;;5014731;28;20054;-59
2022/01/02 04:18:00;;;;;;;5.53;2.30;;;;;;;;;;5014539;28;20046;-61
2022/01/02 04:20:29;;;;;;;4.72;2.30;;;;;;;;;;5014577;28;20115;-61
2022/01/02 04:22:56;;;;;;;4.70;2.40;;;;;;;;;;5014692;28;20046;-61
2022/01/02 04:25:22;;;;;;;3.55;2.08;;;;;;;;;;5014649;28;20048;-59
2022/01/02 04:27:49;;;;;;;4.70;2.88;;;;;;;;;;5014111;28;20069;-60
2022/01/02 04:30:16;;;;;;;5.60;2.97;;;;;;;;;;5014660;28;20053;-61
2022/01/02 04:32:43;;;;;;;6.28;3.00;;;;;;;;;;5014133;28;20054;-60
2022/01/02 04:35:10;;;;;;;5.40;2.83;;;;;;;;;;5014336;28;20050;-58
2022/01/02 04:37:39;;;;;;;6.60;3.10;;;;;;;;;;5014220;28;20133;-61
2022/01/02 04:40:07;;;;;;;7.88;3.63;;;;;;;;;;5014396;28;20414;-60
2022/01/02 04:42:34;;;;;;;7.45;4.47;;;;;;;;;;5014196;28;20053;-61
2022/01/02 04:45:01;;;;;;;7.70;4.10;;;;;;;;;;5014141;28;20419;-60
2022/01/02 04:47:28;;;;;;;6.85;3.10;;;;;;;;;;5013859;28;20046;-60
2022/01/02 04:49:55;;;;;;;6.82;4.32;;;;;;;;;;5013896;28;20415;-60
2022/01/02 04:52:22;;;;;;;5.38;3.10;;;;;;;;;;5013955;28;20065;-58
2022/01/02 04:54:51;;;;;;;6.30;3.05;;;;;;;;;;5014014;28;20058;-60
2022/01/02 04:57:18;;;;;;;6.80;3.65;;;;;;;;;;5013018;28;20054;-60
2022/01/02 04:59:44;;;;;;;5.50;3.00;;;;;;;;;;5014089;28;20140;-61
2022/01/02 05:02:11;;;;;;;4.55;2.45;;;;;;;;;;5013890;28;20042;-60
2022/01/02 05:04:38;;;;;;;4.07;1.95;;;;;;;;;;5013752;28;20049;-60
2022/01/02 05:07:07;;;;;;;3.92;1.75;;;;;;;;;;5013591;28;20418;-60
2022/01/02 05:09:34;;;;;;;4.68;2.70;;;;;;;;;;5013361;28;20141;-60
2022/01/02 05:12:03;;;;;;;5.43;2.60;;;;;;;;;;5013498;28;20046;-61
2022/01/02 05:14:30;;;;;;;4.53;2.28;;;;;;;;;;5014485;28;20056;-63
2022/01/02 05:16:57;;;;;;;3.92;2.30;;;;;;;;;;5013575;28;20049;-59
2022/01/02 05:19:24;;;;;;;3.95;1.98;;;;;;;;;;5013453;28;20050;-60
2022/01/02 05:21:50;;;;;;;4.63;2.17;;;;;;;;;;5013435;28;20050;-61
2022/01/02 05:24:17;;;;;;;5.55;2.60;;;;;;;;;;5013446;28;20121;-61
2022/01/02 05:26:44;;;;;;;5.35;2.72;;;;;;;;;;5013245;28;20050;-59
2022/01/02 05:29:13;;;;;;;4.38;2.70;;;;;;;;;;5013651;28;20054;-60
2022/01/02 05:31:40;;;;;;;4.93;2.90;;;;;;;;;;5013354;28;20057;-60
2022/01/02 05:34:07;;;;;;;3.90;2.47;;;;;;;;;;5012957;28;20510;-60
2022/01/02 05:36:34;;;;;;;4.78;2.42;;;;;;;;;;5013137;28;20049;-60
2022/01/02 05:39:01;;;;;;;5.13;2.70;;;;;;;;;;5012974;28;20092;-60
2022/01/02 05:41:29;;;;;;;5.57;2.80;;;;;;;;;;5013234;28;20096;-60
2022/01/02 05:43:56;;;;;;;4.43;2.63;;;;;;;;;;5013476;28;20054;-60
2022/01/02 05:46:24;;;;;;;4.45;2.45;;;;;;;;;;5012828;28;20054;-60
2022/01/02 05:48:52;;;;;;;3.90;2.42;;;;;;;;;;5013144;28;20081;-59
2022/01/02 05:51:19;;;;;;;5.70;2.35;;;;;;;;;;5013214;28;20056;-60
2022/01/02 05:53:46;;;;;;;5.38;2.72;;;;;;;;;;5012911;28;20042;-60
2022/01/02 05:56:12;;;;;;;5.75;2.78;;;;;;;;;;5012905;28;20052;-60
2022/01/02 05:58:39;;;;;;;5.40;2.85;;;;;;;;;;5012659;28;20050;-60
2022/01/02 06:01:06;;;;;;;6.32;3.33;;;;;;;;;;5012469;28;20503;-60
2022/01/02 06:03:35;;;;;;;6.55;3.88;;;;;;;;;;5012643;28;20061;-59
2022/01/02 06:06:02;;;;;;;7.25;3.58;;;;;;;;;;5012622;28;20053;-59
2022/01/02 06:08:29;;;;;;;8.90;4.28;;;;;;;;;;5012379;28;20054;-60
2022/01/02 06:10:56;;;;;;;8.93;4.70;;;;;;;;;;5012433;28;20053;-60
2022/01/02 06:13:23;;;;;;;7.15;4.05;;;;;;;;;;5012569;28;20053;-60
2022/01/02 06:15:50;;;;;;;6.90;3.63;;;;;;;;;;5012472;28;20046;-60
2022/01/02 06:18:17;;;;;;;8.75;4.53;;;;;;;;;;5012491;28;20050;-59
2022/01/02 06:20:45;;;;;;;5.82;3.72;;;;;;;;;;5012602;28;20049;-60
2022/01/02 06:23:12;;;;;;;7.60;3.80;;;;;;;;;;5012511;28;20042;-60
2022/01/02 06:25:39;;;;;;;7.80;3.88;;;;;;;;;;5012318;28;20050;-61
2022/01/02 06:28:06;;;;;;;6.95;3.35;;;;;;;;;;5012166;28;20058;-60
2022/01/02 06:30:33;;;;;;;6.38;3.50;;;;;;;;;;5012201;28;20396;-60
2022/01/02 06:33:00;;;;;;;7.47;3.90;;;;;;;;;;5012147;28;20049;-60
2022/01/02 06:35:29;;;;;;;7.20;3.88;;;;;;;;;;5012230;28;20132;-60
2022/01/02 06:37:57;;;;;;;8.10;4.55;;;;;;;;;;5011944;28;20053;-60
2022/01/02 06:40:25;;;;;;;7.20;4.18;;;;;;;;;;5011959;28;20046;-60
2022/01/02 06:42:53;;;;;;;6.78;3.80;;;;;;;;;;5012125;28;20072;-60
2022/01/02 06:45:20;;;;;;;8.00;4.50;;;;;;;;;;5012148;28;20133;-60
2022/01/02 06:47:47;;;;;;;6.82;4.20;;;;;;;;;;5011804;28;20057;-60
2022/01/02 06:50:14;;;;;;;8.48;4.60;;;;;;;;;;5012178;28;20049;-60
2022/01/02 06:52:41;;;;;;;7.57;4.63;;;;;;;;;;5011775;28;20056;-60
2022/01/02 06:55:10;;;;;;;7.05;3.83;;;;;;;;;;5012051;28;20069;-59
2022/01/02 06:57:37;;;;;;;7.47;4.32;;;;;;;;;;5012412;28;20054;-60
2022/01/02 07:00:06;;;;;;;8.48;4.55;;;;;;;;;;5012254;28;20065;-60
2022/01/02 07:02:33;;;;;;;9.13;4.20;;;;;;;;;;5011820;28;20518;-60
2022/01/02 07:05:00;;;;;;;8.27;4.40;;;;;;;;;;5012070;28;20058;-60
2022/01/02 07:07:27;;;;;;;9.15;4.53;;;;;;;;;;5011589;28;20057;-60
2022/01/02 07:09:54;;;;;;;7.95;4.38;;;;;;;;;;5011896;28;20046;-60
2022/01/02 07:12:23;;;;;;;7.93;4.72;;;;;;;;;;5011650;28;20046;-60
2022/01/02 07:14:50;;;;;;;7.82;4.70;;;;;;;;;;5012088;28;20052;-60
2022/01/02 07:17:17;;;;;;;8.15;4.20;;;;;;;;;;5011465;28;20054;-59
2022/01/02 07:19:44;;;;;;;8.98;4.80;;;;;;;;;;5012357;28;20400;-59
2022/01/02 07:22:11;;;;;;;8.80;4.65;;;;;;;;;;5015368;28;20046;-60
2022/01/02 07:24:39;;;;;;;10.70;5.00;;;;;;;;;;5015598;28;20053;-60
2022/01/02 07:27:06;;;;;;;7.70;4.65;;;;;;;;;;5015328;28;20042;-60
2022/01/02 07:29:35;;;;;;;9.57;5.38;;;;;;;;;;5015517;28;20046;-60
2022/01/02 07:32:02;;;;;;;7.82;4.63;;;;;;;;;;5015413;28;20046;-60
2022/01/02 07:34:29;;;;;;;7.43;4.72;;;;;;;;;;5015704;28;20521;-60
2022/01/02 07:36:55;;;;;;;6.13;3.92;;;;;;;;;;5015392;28;20053;-60
2022/01/02 07:39:22;;;;;;;6.90;3.40;;;;;;;;;;5015288;28;20065;-60
2022/01/02 07:41:49;;;;;;;6.10;3.30;;;;;;;;;;5015369;28;20430;-60
2022/01/02 07:44:16;;;;;;;5.20;3.00;;;;;;;;;;5015433;28;20057;-60
2022/01/02 07:46:45;;;;;;;5.65;2.90;;;;;;;;;;5014868;28;20050;-59
2022/01/02 07:49:12;;;;;;;4.45;2.60;;;;;;;;;;5015282;28;20042;-60
2022/01/02 07:51:39;;;;;;;5.40;2.42;;;;;;;;;;5015198;28;20061;-60
2022/01/02 07:54:06;;;;;;;5.30;2.45;;;;;;;;;;5015109;28;20058;-60
2022/01/02 07:56:33;;;;;;;5.20;2.47;;;;;;;;;;5014880;28;20589;-60
2022/01/02 07:59:00;;;;;;;5.70;2.47;;;;;;;;;;5015217;28;20132;-60
2022/01/02 08:01:27;;;;;;;5.72;2.63;;;;;;;;;;5015001;28;20054;-59
2022/01/02 08:03:55;;;;;;;5.85;2.50;;;;;;;;;;5014817;28;20049;-60
2022/01/02 08:06:22;;;;;;;4.97;2.70;;;;;;;;;;5014805;28;20054;-58
2022/01/02 08:08:50;;;;;;;5.95;2.17;;;;;;;;;;5014617;28;20056;-59
2022/01/02 08:11:17;;;;;;;4.75;2.00;;;;;;;;;;5014861;28;20053;-60
2022/01/02 08:13:45;;;;;;;4.35;2.20;;;;;;;;;;5014981;28;20053;-58
2022/01/02 08:16:11;;;;;;;4.85;2.13;;;;;;;;;;5014630;28;20050;-60
2022/01/02 08:18:39;;;;;;;5.40;2.08;;;;;;;;;;5014284;28;20049;-58
2022/01/02 08:21:07;;;;;;;5.93;2.45;;;;;;;;;;5014573;28;20052;-60
2022/01/02 08:23:35;;;;;;;6.57;2.75;;;;;;;;;;5014491;28;20050;-60
2022/01/02 08:26:02;;;;;;;4.60;2.15;;;;;;;;;;5014582;28;20053;-60
2022/01/02 08:28:30;;;;;;;6.53;2.20;;;;;;;;;;5014291;28;20046;-60
2022/01/02 08:30:57;;;;;;;5.32;2.35;;;;;;;;;;5013952;28;20061;-60
2022/01/02 08:33:24;;;;;;;4.63;2.08;;;;;;;;;;5013488;28;20046;-60
2022/01/02 08:35:51;;;;;;;4.85;2.88;;;;;;;;;;5014568;28;20056;-61
2022/01/02 08:38:19;;;;;;;11.18;7.18;;;;;;;;;;5014296;28;20050;-62
2022/01/02 08:40:46;;;;;;;11.55;7.00;;;;;;;;;;5014370;28;20499;-61
2022/01/02 08:43:13;;;;;;;22.58;13.90;;;;;;;;;;5014437;28;20133;-61
2022/01/02 08:45:40;;;;;;;11.85;6.65;;;;;;;;;;5014392;28;20439;-62
2022/01/02 08:48:07;;;;;;;6.93;3.67;;;;;;;;;;5013703;28;20056;-60
2022/01/02 08:50:34;;;;;;;17.23;9.65;;;;;;;;;;5014053;28;20100;-61
2022/01/02 08:53:01;;;;;;;9.45;4.93;;;;;;;;;;5014065;28;20055;-62
2022/01/02 08:55:30;;;;;;;5.03;2.17;;;;;;;;;;5014063;28;20049;-60
2022/01/02 08:57:57;;;;;;;4.38;2.30;;;;;;;;;;5014074;28;20503;-62
2022/01/02 09:00:25;;;;;;;4.03;2.05;;;;;;;;;;5014357;28;20050;-61
2022/01/02 09:02:52;;;;;;;5.22;2.70;;;;;;;;;;5013929;28;20085;-61
2022/01/02 09:05:19;;;;;;;5.20;2.63;;;;;;;;;;5013817;28;20233;-62
2022/01/02 09:07:46;;;;;;;6.53;2.60;;;;;;;;;;5014397;28;20046;-61
2022/01/02 09:10:16;;;;;;;6.57;2.83;;;;;;;;;;5014332;28;20072;-61
2022/01/02 09:12:44;;;;;;;5.38;2.80;;;;;;;;;;5014276;28;20065;-62
2022/01/02 09:15:12;;;;;;;4.93;2.80;;;;;;;;;;5013984;28;20049;-61
2022/01/02 09:17:39;;;;;;;7.10;3.85;;;;;;;;;;5013644;28;20053;-62
2022/01/02 09:20:08;;;;;;;6.63;3.63;;;;;;;;;;5013628;28;20049;-60
2022/01/02 09:22:37;;;;;;;6.28;3.45;;;;;;;;;;5013734;28;20103;-59
2022/01/02 09:25:05;;;;;;;5.15;2.22;;;;;;;;;;5013628;28;20050;-60
2022/01/02 09:27:32;;;;;;;4.43;1.98;;;;;;;;;;5013430;28;20119;-61
2022/01/02 09:30:02;;;;;;;3.00;1.40;;;;;;;;;;5013684;28;20050;-61
2022/01/02 09:32:29;;;;;;;3.22;1.40;;;;;;;;;;5013171;28;20064;-61
2022/01/02 09:34:56;;;;;;;2.75;1.30;;;;;;;;;;5024331;23;20045;-62
2022/01/02 09:37:23;;;;;;;3.78;1.30;;;;;;;;;;5013231;28;20050;-60
2022/01/02 09:39:50;;;;;;;3.90;1.60;;;;;;;;;;5013258;28;20525;-61
2022/01/02 09:42:17;;;;;;;2.70;1.30;;;;;;;;;;5013175;28;20398;-59
2022/01/02 09:44:44;;;;;;;3.80;1.40;;;;;;;;;;5013129;28;20052;-61
2022/01/02 09:47:15;;;;;;;2.75;1.10;;;;;;;;;;5012940;28;20054;-61
2022/01/02 09:49:42;;;;;;;;;;;;;;;;;;5013411;28;20060;-62
2022/01/02 09:52:09;;;;;;;2.97;1.42;;;;;;;;;;5013073;28;19921;-61
2022/01/02 09:54:36;;;;;;;3.35;1.40;;;;;;;;;;5012725;28;20050;-62
2022/01/02 09:57:03;;;;;;;2.17;1.30;;;;;;;;;;5012931;28;20501;-60
2022/01/02 09:59:30;;;;;;;2.63;1.20;;;;;;;;;;5013258;28;20057;-62
2022/01/02 10:01:59;;;;;;;3.60;1.67;;;;;;;;;;5012826;28;20136;-63
2022/01/02 10:04:35;;;;;;;3.05;1.20;;;;;;;;;;5013100;28;20101;-60
2022/01/02 10:07:02;;;;;;;2.50;1.20;;;;;;;;;;5012574;28;20145;-64
2022/01/02 10:09:35;;;;;;;3.33;1.25;;;;;;;;;;5012721;28;20061;-62
2022/01/02 10:12:22;;;;;;;3.03;1.52;;;;;;;;;;5012828;28;20379;-61
2022/01/02 10:15:11;;;;;;;3.03;1.40;;;;;;;;;;5012798;28;20411;-62
2022/01/02 10:18:09;;;;;;;2.75;1.58;;;;;;;;;;5012551;28;20487;-62
2022/01/02 10:20:39;;;;;;;2.17;1.00;;;;;;;;;;4952218;29;20428;-61
2022/01/02 10:23:13;;;;;;;;;;;;;;;;;;5000240;28;20064;-61
2022/01/02 10:25:53;;;;;;;3.55;1.15;;;;;;;;;;5012526;28;20271;-62
2022/01/02 10:28:35;;;;;;;3.72;1.73;;;;;;;;;;5012437;28;20046;-62
2022/01/02 10:31:04;;;;;;;3.72;1.23;;;;;;;;;;5012405;28;20045;-60
2022/01/02 10:33:47;;;;;;;2.88;1.15;;;;;;;;;;5012456;28;20495;-61
2022/01/02 10:36:24;;;;;;;3.00;1.10;;;;;;;;;;5012286;28;20573;-61
2022/01/02 10:39:07;;;;;;;2.95;1.20;;;;;;;;;;5012246;28;20058;-59
2022/01/02 10:41:37;;;;;;;2.08;1.00;;;;;;;;;;5012338;28;20049;-59
2022/01/02 10:44:29;;;;;;;4.82;1.55;;;;;;;;;;5012462;28;20491;-59
2022/01/02 10:47:14;;;;;;;3.08;1.13;;;;;;;;;;5012216;28;20121;-60
2022/01/02 10:50:04;;;;;;;4.13;1.30;;;;;;;;;;5011996;28;20054;-62
2022/01/02 10:52:34;;;;;;;2.60;1.10;;;;;;;;;;5008647;28;20116;-62
2022/01/02 10:55:05;;;;;;;2.88;1.17;;;;;;;;;;5013594;28;20054;-61
2022/01/02 10:57:32;;;;;;;1.45;0.95;;;;;;;;;;5013898;28;20088;-60
2022/01/02 11:00:00;;;;;;;3.10;1.40;;;;;;;;;;5013877;28;20147;-61
2022/01/02 11:02:28;;;;;;;2.92;1.38;;;;;;;;;;5014160;28;20054;-61
2022/01/02 11:04:58;;;;;;;2.28;1.30;;;;;;;;;;5014287;28;20094;-61
2022/01/02 11:07:26;;;;;;;2.35;1.00;;;;;;;;;;5013120;28;20050;-62
2022/01/02 11:09:56;;;;;;;2.97;1.08;;;;;;;;;;5013182;28;20054;-62
2022/01/02 11:12:24;;;;;;;1.80;1.10;;;;;;;;;;5013336;28;20146;-62
2022/01/02 11:14:52;;;;;;;2.33;1.08;;;;;;;;;;5013360;28;20042;-62
2022/01/02 11:17:19;;;;;;;2.53;1.25;;;;;;;;;;5012793;28;20435;-61
2022/01/02 11:19:47;;;;;;;2.83;1.25;;;;;;;;;;5013249;28;20050;-62
2022/01/02 11:22:43;;;;;;;3.38;1.42;;;;;;;;;;5011883;28;20062;-62
2022/01/02 11:25:20;;;;;;;3.92;1.45;;;;;;;;;;5012557;28;20045;-61
2022/01/02 11:27:52;;;;;;;2.75;1.23;;;;;;;;;;5012944;28;20057;-62
2022/01/02 11:30:39;;;;;;;2.75;1.00;;;;;;;;;;5013371;28;20096;-63
2022/01/02 11:33:08;;;;;;;2.42;1.00;;;;;;;;;;5011444;28;20064;-62
2022/01/02 11:35:37;;;;;;;2.40;0.95;;;;;;;;;;5011702;28;20057;-61
2022/01/02 11:38:06;;;;;;;1.92;0.93;;;;;;;;;;5011609;28;20529;-60
2022/01/02 11:40:57;;;;;;;2.72;0.98;;;;;;;;;;5011979;28;20053;-63
2022/01/02 11:43:52;;;;;;;3.45;0.90;;;;;;;;;;5011610;28;20046;-65
2022/01/02 11:46:25;;;;;;;2.05;0.70;;;;;;;;;;5006249;28;20084;-71
2022/01/02 11:49:21;;;;;;;1.90;0.88;;;;;;;;;;5011445;28;20042;-64
2022/01/02 11:52:21;;;;;;;2.83;1.20;;;;;;;;;;5011641;28;20050;-66
2022/01/02 11:54:58;;;;;;;3.03;1.58;;;;;;;;;;5012033;28;20079;-63
2022/01/02 11:57:54;;;;;;;3.20;1.50;;;;;;;;;;5011416;28;20089;-63
2022/01/02 12:00:47;;;;;;;3.53;1.48;;;;;;;;;;5011478;28;20058;-64
2022/01/02 12:03:48;;;;;;;5.28;2.60;;;;;;;;;;5011457;28;20120;-62
2022/01/02 12:06:19;;;;;;;;;;;;;;;;;;4952317;28;20171;-62
2022/01/02 12:08:46;;;;;;;4.28;1.88;;;;;;;;;;4954072;28;20332;-62
2022/01/02 12:11:43;;;;;;;2.30;1.25;;;;;;;;;;4983385;28;20053;-66
2022/01/02 12:14:17;;;;;;;2.47;1.20;;;;;;;;;;5014829;28;20046;-64
2022/01/02 12:16:52;;;;;;;2.70;0.98;;;;;;;;;;5014827;28;20108;-65
2022/01/02 12:19:20;;;;;;;3.05;1.30;;;;;;;;;;5014681;28;20093;-62
2022/01/02 12:22:12;;;;;;;3.22;1.30;;;;;;;;;;5014800;28;20046;-62
2022/01/02 12:24:40;;;;;;;3.60;1.10;;;;;;;;;;5014815;28;20049;-62
2022/01/02 12:27:12;;;;;;;2.85;1.20;;;;;;;;;;5014433;28;20380;-62
2022/01/02 12:29:41;;;;;;;2.42;1.00;;;;;;;;;;5015322;28;20054;-62
2022/01/02 12:32:08;;;;;;;2.50;1.00;;;;;;;;;;5014464;28;20442;-62
2022/01/02 12:34:35;;;;;;;2.95;1.00;;;;;;;;;;5012702;28;20069;-63
2022/01/02 12:37:04;;;;;;;3.90;1.30;;;;;;;;;;5009584;28;20061;-63
2022/01/02 12:39:32;;;;;;;2.67;1.10;;;;;;;;;;5003238;28;20136;-63
2022/01/02 12:42:05;;;;;;;2.67;1.17;;;;;;;;;;5003151;28;20085;-63
2022/01/02 12:44:34;;;;;;;2.10;0.90;;;;;;;;;;5000475;28;20050;-63
2022/01/02 12:47:05;;;;;;;3.15;1.25;;;;;;;;;;5004766;28;20391;-63
2022/01/02 12:49:34;;;;;;;1.73;0.85;;;;;;;;;;5004646;28;20047;-62
2022/01/02 12:52:04;;;;;;;2.63;0.85;;;;;;;;;;4999622;28;20050;-64
2022/01/02 12:54:33;;;;;;;2.27;1.10;;;;;;;;;;5002313;28;20506;-63
2022/01/02 12:57:02;;;;;;;4.07;1.20;;;;;;;;;;5012738;28;20272;-63
2022/01/02 12:59:31;;;;;;;2.55;1.00;;;;;;;;;;5014022;28;20065;-63
2022/01/02 13:02:05;;;;;;;1.50;0.63;;;;;;;;;;5014215;28;20525;-63
2022/01/02 13:04:33;;;;;;;1.75;0.80;;;;;;;;;;5014609;28;20461;-64
2022/01/02 13:07:02;;;;;;;2.53;1.00;;;;;;;;;;5008781;28;20053;-63
2022/01/02 13:09:32;;;;;;;1.73;1.00;;;;;;;;;;5007715;28;20092;-64
2022/01/02 13:12:02;;;;;;;2.10;0.80;;;;;;;;;;5013881;28;20057;-63
2022/01/02 13:14:35;;;;;;;2.15;0.90;;;;;;;;;;5013785;28;20240;-64
2022/01/02 13:17:06;;;;;;;1.77;0.70;;;;;;;;;;5013498;28;20127;-64
2022/01/02 13:19:33;;;;;;;1.40;0.60;;;;;;;;;;5013345;28;20061;-63
2022/01/02 13:22:00;;;;;;;1.38;0.68;;;;;;;;;;5013719;28;20050;-64
2022/01/02 13:24:30;;;;;;;1.23;0.63;;;;;;;;;;5013663;28;20152;-64
2022/01/02 13:26:58;;;;;;;1.63;0.82;;;;;;;;;;5013943;28;20105;-63
2022/01/02 13:29:27;;;;;;;1.45;0.65;;;;;;;;;;5013816;28;20112;-64
2022/01/02 13:31:56;;;;;;;2.03;0.82;;;;;;;;;;5013717;28;20050;-64
2022/01/02 13:34:27;;;;;;;;;;;;;;;;;;5012822;28;20057;-64
2022/01/02 13:36:58;;;;;;;2.47;0.80;;;;;;;;;;5013287;28;19975;-64
2022/01/02 13:39:43;;;;;;;1.67;1.00;;;;;;;;;;5013320;28;20061;-65
2022/01/02 13:42:12;;;;;;;7.38;2.50;;;;;;;;;;5013379;28;20057;-64
2022/01/02 13:44:42;;;;;;;4.32;1.85;;;;;;;;;;5013062;28;20490;-65
2022/01/02 13:47:10;;;;;;;2.93;1.13;;;;;;;;;;5013216;28;20054;-65
2022/01/02 13:49:48;;;;;;;3.05;1.27;;;;;;;;;;5013171;28;20307;-64
2022/01/02 13:52:17;;;;;;;1.17;0.65;;;;;;;;;;5013543;28;20530;-65
2022/01/02 13:54:45;;;;;;;3.25;1.20;;;;;;;;;;5013209;28;20062;-64
2022/01/02 13:57:14;;;;;;;1.95;0.85;;;;;;;;;;5012895;28;20050;-63
2022/01/02 13:59:41;;;;;;;4.07;1.40;;;;;;;;;;5013002;28;20107;-64
2022/01/02 14:02:12;;;;;;;2.13;0.85;;;;;;;;;;5012971;28;20441;-64
2022/01/02 14:04:59;;;;;;;2.97;1.00;;;;;;;;;;5013192;28;20704;-64
2022/01/02 14:07:30;;;;;;;2.47;1.00;;;;;;;;;;5013162;28;20438;-64
2022/01/02 14:10:00;;;;;;;3.95;1.42;;;;;;;;;;5012852;28;20065;-64
2022/01/02 14:12:30;;;;;;;1.45;0.80;;;;;;;;;;5012828;28;20046;-64
2022/01/02 14:15:08;;;;;;;2.63;0.88;;;;;;;;;;5012546;28;20049;-65
2022/01/02 14:17:35;;;;;;;3.55;0.82;;;;;;;;;;5012735;28;20053;-65
2022/01/02 14:20:05;;;;;;;2.50;1.10;;;;;;;;;;5012635;28;20467;-64
2022/01/02 14:22:35;;;;;;;3.05;1.08;;;;;;;;;;5012848;28;20510;-65
2022/01/02 14:25:05;;;;;;;2.85;1.10;;;;;;;;;;5012933;28;20096;-64
2022/01/02 14:27:32;;;;;;;2.88;1.25;;;;;;;;;;5012633;28;20712;-63
2022/01/02 14:30:00;;;;;;;3.13;1.15;;;;;;;;;;5011702;28;20446;-64
2022/01/02 14:32:29;;;;;;;4.10;1.13;;;;;;;;;;5012389;28;20430;-64
2022/01/02 14:34:57;;;;;;;3.58;1.50;;;;;;;;;;5012626;28;20133;-64
2022/01/02 14:37:25;;;;;;;4.93;2.83;;;;;;;;;;5012306;28;20081;-63
2022/01/02 14:39:53;;;;;;;4.90;2.65;;;;;;;;;;5012862;28;20060;-63
2022/01/02 14:42:20;;;;;;;3.85;1.25;;;;;;;;;;5013015;28;20119;-63
2022/01/02 14:44:47;;;;;;;2.05;1.13;;;;;;;;;;5012687;28;20050;-65
2022/01/02 14:47:15;;;;;;;3.78;1.73;;;;;;;;;;5012583;28;20093;-64
2022/01/02 14:49:42;;;;;;;5.70;1.60;;;;;;;;;;5012389;28;20096;-64
2022/01/02 14:52:09;;;;;;;3.42;1.45;;;;;;;;;;5012401;28;20073;-65
2022/01/02 14:54:37;;;;;;;6.10;2.00;;;;;;;;;;5012439;28;20050;-64
2022/01/02 14:57:08;;;;;;;4.65;1.42;;;;;;;;;;5012243;28;20144;-63
2022/01/02 14:59:35;;;;;;;4.30;1.30;;;;;;;;;;5012091;28;20052;-63
2022/01/02 15:02:03;;;;;;;2.80;1.40;;;;;;;;;;5012436;28;20046;-64